createdAt,value
2023-04-21T00:00:50.769Z,2.35
2023-04-21T00:01:50.817Z,2.25
2023-04-21T00:02:51.050Z,2.12
2023-04-21T00:03:51.086Z,2.01
2023-04-21T00:04:51.111Z,2.35
2023-04-21T00:05:51.166Z,2.14
2023-04-21T00:06:51.035Z,2.19
2023-04-21T00:07:51.083Z,2.22
2023-04-21T00:08:51.199Z,2.42
2023-04-21T00:09:51.199Z,2.30
2023-04-21T00:10:51.266Z,2.51
2023-04-21T00:11:51.313Z,2.42
2023-04-21T00:12:51.362Z,2.02
2023-04-21T00:13:51.403Z,2.70
2023-04-21T00:14:51.458Z,2.17
2023-04-21T00:15:51.608Z,2.18
2023-04-21T00:16:51.545Z,1.91
2023-04-21T00:17:51.638Z,2.46
2023-04-21T00:18:51.657Z,1.93
2023-04-21T00:19:51.737Z,2.37
2023-04-21T00:20:51.767Z,2.20
2023-04-21T00:21:52.581Z,2.31
2023-04-21T00:22:51.887Z,2.43
2023-04-21T00:23:51.952Z,2.36
2023-04-21T00:24:51.976Z,2.40
2023-04-21T00:25:52.035Z,2.22
2023-04-21T00:26:52.074Z,2.52
2023-04-21T00:27:52.159Z,2.65
2023-04-21T00:28:52.198Z,2.28
2023-04-21T00:29:52.262Z,2.28
2023-04-21T00:30:52.298Z,1.92
2023-04-21T00:31:52.339Z,2.18
2023-04-21T00:32:52.439Z,2.31
2023-04-21T00:33:52.433Z,2.35
2023-04-21T00:34:52.463Z,2.30
2023-04-21T00:35:52.515Z,2.23
2023-04-21T00:36:52.547Z,2.46
2023-04-21T00:37:52.620Z,2.63
2023-04-21T00:38:52.643Z,2.04
2023-04-21T00:39:52.744Z,2.44
2023-04-21T00:40:52.738Z,2.08
2023-04-21T00:41:58.059Z,2.06
2023-04-21T00:42:52.777Z,2.26
2023-04-21T00:43:52.781Z,2.26
2023-04-21T00:44:52.742Z,2.24
2023-04-21T00:45:52.823Z,2.25
2023-04-21T00:46:52.858Z,2.68
2023-04-21T00:47:52.984Z,2.28
2023-04-21T00:48:52.920Z,2.46
2023-04-21T00:49:52.996Z,2.13
2023-04-21T00:50:53.032Z,2.57
2023-04-21T00:51:53.059Z,1.95
2023-04-21T00:52:53.125Z,2.14
2023-04-21T00:53:53.153Z,2.53
2023-04-21T00:54:53.241Z,2.43
2023-04-21T00:55:53.253Z,2.22
2023-04-21T00:56:53.316Z,2.18
2023-04-21T00:57:53.369Z,2.64
2023-04-21T00:58:53.400Z,2.36
2023-04-21T00:59:53.425Z,2.84
2023-04-21T01:00:53.524Z,2.36
2023-04-21T01:01:53.526Z,2.44
2023-04-21T01:02:53.642Z,2.40
2023-04-21T01:03:53.782Z,2.39
2023-04-21T01:04:53.594Z,2.52
2023-04-21T01:05:53.674Z,2.36
2023-04-21T01:06:53.734Z,1.89
2023-04-21T01:07:53.762Z,2.46
2023-04-21T01:08:53.821Z,2.66
2023-04-21T01:09:53.853Z,2.81
2023-04-21T01:10:53.928Z,2.23
2023-04-21T01:11:53.973Z,2.27
2023-04-21T01:12:54.037Z,2.53
2023-04-21T01:13:54.089Z,2.14
2023-04-21T01:14:54.153Z,2.63
2023-04-21T01:15:54.161Z,2.62
2023-04-21T01:16:54.300Z,2.40
2023-04-21T01:17:54.384Z,2.03
2023-04-21T01:18:54.312Z,2.54
2023-04-21T01:19:54.348Z,2.49
2023-04-21T01:20:54.395Z,2.30
2023-04-21T01:21:54.422Z,2.74
2023-04-21T01:22:54.476Z,2.38
2023-04-21T01:23:54.541Z,2.30
2023-04-21T01:24:54.549Z,2.22
2023-04-21T01:25:54.626Z,2.34
2023-04-21T01:26:54.638Z,2.45
2023-04-21T01:27:54.706Z,2.30
2023-04-21T01:28:54.769Z,2.53
2023-04-21T01:29:54.795Z,2.46
2023-04-21T01:30:54.875Z,2.15
2023-04-21T01:31:54.922Z,2.60
2023-04-21T01:32:54.897Z,2.37
2023-04-21T01:33:54.925Z,2.11
2023-04-21T01:34:55.016Z,2.28
2023-04-21T01:35:55.024Z,2.24
2023-04-21T01:36:55.063Z,2.21
2023-04-21T01:37:55.096Z,2.36
2023-04-21T01:38:55.157Z,2.87
2023-04-21T01:39:55.219Z,2.20
2023-04-21T01:40:55.240Z,2.36
2023-04-21T01:41:55.276Z,2.52
2023-04-21T01:42:55.352Z,2.47
2023-04-21T01:43:55.404Z,2.18
2023-04-21T01:44:55.511Z,2.82
2023-04-21T01:45:55.571Z,2.41
2023-04-21T01:46:55.545Z,2.12
2023-04-21T01:47:55.661Z,2.22
2023-04-21T01:48:55.646Z,2.17
2023-04-21T01:49:55.704Z,2.29
2023-04-21T01:50:55.766Z,2.37
2023-04-21T01:51:55.817Z,2.48
2023-04-21T01:52:55.870Z,2.56
2023-04-21T01:53:55.912Z,2.53
2023-04-21T01:54:55.943Z,2.34
2023-04-21T01:55:56.005Z,2.61
2023-04-21T01:56:56.156Z,2.52
2023-04-21T01:57:56.075Z,2.35
2023-04-21T01:58:56.102Z,2.22
2023-04-21T01:59:56.178Z,2.33
2023-04-21T02:00:56.275Z,2.55
2023-04-21T02:01:56.396Z,2.52
2023-04-21T02:02:56.441Z,2.02
2023-04-21T02:03:56.401Z,2.64
2023-04-21T02:04:56.458Z,2.71
2023-04-21T02:05:56.500Z,2.73
2023-04-21T02:06:56.494Z,2.65
2023-04-21T02:07:56.464Z,2.33
2023-04-21T02:08:56.508Z,2.65
2023-04-21T02:09:56.586Z,2.10
2023-04-21T02:10:56.613Z,2.99
2023-04-21T02:11:56.650Z,3.04
2023-04-21T02:12:56.647Z,3.38
2023-04-21T02:13:56.709Z,2.27
2023-04-21T02:14:56.757Z,2.74
2023-04-21T02:16:09.524Z,2.37
2023-04-21T02:16:57.802Z,2.67
2023-04-21T02:17:56.856Z,2.32
2023-04-21T02:18:56.827Z,2.49
2023-04-21T02:19:56.789Z,2.58
2023-04-21T02:20:56.793Z,2.57
2023-04-21T02:21:56.770Z,2.85
2023-04-21T02:22:56.780Z,2.25
2023-04-21T02:23:56.729Z,2.74
2023-04-21T02:24:56.736Z,2.52
2023-04-21T02:25:56.745Z,2.50
2023-04-21T02:26:56.792Z,2.24
2023-04-21T02:27:56.967Z,2.38
2023-04-21T02:28:56.877Z,2.83
2023-04-21T02:29:56.934Z,2.44
2023-04-21T02:30:57.012Z,2.53
2023-04-21T02:32:02.949Z,2.53
2023-04-21T02:32:58.033Z,2.46
2023-04-21T02:33:57.001Z,2.72
2023-04-21T02:34:57.005Z,2.78
2023-04-21T02:35:57.020Z,2.83
2023-04-21T02:36:56.996Z,2.16
2023-04-21T02:37:56.981Z,2.61
2023-04-21T02:38:56.990Z,2.47
2023-04-21T02:39:56.948Z,2.32
2023-04-21T02:40:56.938Z,2.25
2023-04-21T02:41:56.955Z,2.49
2023-04-21T02:42:57.024Z,2.61
2023-04-21T02:43:57.061Z,2.37
2023-04-21T02:44:57.126Z,2.46
2023-04-21T02:45:57.165Z,2.71
2023-04-21T02:46:57.218Z,2.61
2023-04-21T02:47:57.320Z,2.35
2023-04-21T02:48:57.307Z,2.11
2023-04-21T02:49:57.333Z,2.24
2023-04-21T02:50:57.420Z,2.44
2023-04-21T02:51:57.450Z,2.56
2023-04-21T02:52:57.491Z,2.60
2023-04-21T02:53:57.551Z,2.72
2023-04-21T02:54:57.572Z,2.88
2023-04-21T02:55:57.615Z,3.11
2023-04-21T02:56:57.657Z,2.83
2023-04-21T02:57:57.709Z,2.43
2023-04-21T02:58:57.750Z,2.86
2023-04-21T02:59:57.826Z,2.41
2023-04-21T03:00:57.884Z,2.42
2023-04-21T03:01:57.925Z,2.62
2023-04-21T03:02:58.183Z,2.67
2023-04-21T03:03:58.193Z,2.46
2023-04-21T03:04:58.106Z,2.76
2023-04-21T03:05:58.143Z,2.34
2023-04-21T03:06:58.206Z,2.57
2023-04-21T03:07:58.247Z,2.78
2023-04-21T03:08:58.278Z,2.86
2023-04-21T03:09:58.295Z,2.57
2023-04-21T03:10:58.384Z,2.28
2023-04-21T03:11:58.433Z,2.44
2023-04-21T03:12:58.479Z,2.34
2023-04-21T03:13:58.549Z,2.82
2023-04-21T03:14:58.562Z,2.71
2023-04-21T03:15:58.653Z,2.14
2023-04-21T03:16:58.706Z,2.45
2023-04-21T03:17:58.773Z,2.75
2023-04-21T03:18:58.737Z,2.49
2023-04-21T03:19:58.814Z,2.64
2023-04-21T03:20:58.855Z,2.58
2023-04-21T03:21:58.921Z,2.36
2023-04-21T03:22:58.984Z,2.61
2023-04-21T03:23:59.012Z,2.47
2023-04-21T03:24:59.089Z,2.64
2023-04-21T03:25:59.152Z,2.65
2023-04-21T03:26:59.186Z,2.50
2023-04-21T03:27:59.248Z,2.83
2023-04-21T03:28:59.283Z,3.12
2023-04-21T03:29:59.336Z,2.58
2023-04-21T03:30:59.350Z,2.45
2023-04-21T03:31:59.497Z,2.93
2023-04-21T03:32:59.464Z,2.50
2023-04-21T03:33:59.546Z,2.80
2023-04-21T03:34:59.581Z,2.37
2023-04-21T03:35:59.620Z,2.41
2023-04-21T03:36:59.667Z,2.27
2023-04-21T03:38:00.880Z,2.29
2023-04-21T03:39:12.676Z,2.56
2023-04-21T03:40:00.784Z,2.88
2023-04-21T03:40:59.766Z,2.62
2023-04-21T03:41:59.787Z,2.65
2023-04-21T03:42:59.758Z,3.07
2023-04-21T03:43:59.736Z,2.55
2023-04-21T03:44:59.741Z,2.32
2023-04-21T03:45:59.755Z,2.87
2023-04-21T03:46:59.704Z,2.40
2023-04-21T03:47:59.785Z,2.87
2023-04-21T03:49:01.231Z,2.60
2023-04-21T03:49:59.773Z,3.11
2023-04-21T03:50:59.747Z,3.22
2023-04-21T03:51:59.759Z,2.63
2023-04-21T03:52:59.751Z,2.93
2023-04-21T03:53:59.780Z,2.70
2023-04-21T03:54:59.773Z,2.50
2023-04-21T03:55:59.723Z,2.64
2023-04-21T03:56:59.727Z,2.69
2023-04-21T03:57:59.718Z,2.63
2023-04-21T03:58:59.702Z,2.31
2023-04-21T03:59:59.695Z,3.20
2023-04-21T04:00:59.674Z,2.52
2023-04-21T04:01:59.766Z,2.78
2023-04-21T04:02:59.839Z,2.37
2023-04-21T04:03:59.839Z,2.47
2023-04-21T04:04:59.845Z,2.80
2023-04-21T04:05:59.671Z,2.73
2023-04-21T04:06:59.657Z,2.69
2023-04-21T04:07:59.655Z,2.46
2023-04-21T04:08:59.650Z,2.30
2023-04-21T04:09:59.673Z,2.65
2023-04-21T04:10:59.617Z,2.77
2023-04-21T04:11:59.612Z,2.52
2023-04-21T04:12:59.598Z,2.85
2023-04-21T04:13:59.592Z,2.70
2023-04-21T04:14:59.562Z,2.65
2023-04-21T04:15:59.627Z,2.63
2023-04-21T04:16:59.622Z,2.53
2023-04-21T04:17:59.591Z,2.48
2023-04-21T04:18:59.564Z,2.98
2023-04-21T04:19:59.575Z,2.53
2023-04-21T04:20:59.535Z,2.61
2023-04-21T04:21:59.551Z,2.63
2023-04-21T04:22:59.493Z,2.60
2023-04-21T04:23:59.526Z,2.95
2023-04-21T04:24:59.506Z,2.62
2023-04-21T04:25:59.509Z,2.87
2023-04-21T04:26:59.514Z,2.75
2023-04-21T04:27:59.473Z,2.91
2023-04-21T04:28:59.486Z,2.36
2023-04-21T04:29:59.447Z,2.67
2023-04-21T04:30:59.525Z,2.68
2023-04-21T04:31:59.468Z,2.75
2023-04-21T04:32:59.501Z,2.98
2023-04-21T04:33:59.533Z,2.92
2023-04-21T04:34:59.563Z,2.87
2023-04-21T04:35:59.640Z,2.69
2023-04-21T04:36:59.699Z,3.08
2023-04-21T04:37:59.776Z,2.79
2023-04-21T04:38:59.771Z,2.74
2023-04-21T04:39:59.819Z,2.69
2023-04-21T04:40:59.884Z,2.89
2023-04-21T04:41:59.934Z,2.49
2023-04-21T04:42:59.981Z,3.03
2023-04-21T04:44:00.850Z,2.65
2023-04-21T04:45:00.052Z,2.68
2023-04-21T04:46:00.113Z,2.60
2023-04-21T04:47:00.339Z,2.84
2023-04-21T04:48:00.229Z,2.53
2023-04-21T04:49:00.262Z,2.68
2023-04-21T04:50:00.311Z,2.57
2023-04-21T04:51:00.355Z,2.71
2023-04-21T04:52:00.384Z,2.56
2023-04-21T04:53:00.415Z,2.73
2023-04-21T04:54:00.458Z,2.46
2023-04-21T04:55:00.477Z,2.75
2023-04-21T04:56:00.563Z,2.62
2023-04-21T04:57:00.561Z,2.61
2023-04-21T04:58:00.636Z,2.85
2023-04-21T04:59:00.746Z,2.66
2023-04-21T05:00:00.731Z,2.60
2023-04-21T05:01:00.770Z,2.61
2023-04-21T05:02:00.879Z,3.36
2023-04-21T05:03:01.034Z,3.67
2023-04-21T05:04:01.117Z,3.59
2023-04-21T05:05:00.925Z,3.65
2023-04-21T05:06:00.975Z,4.48
2023-04-21T05:07:00.974Z,4.84
2023-04-21T05:08:00.961Z,5.10
2023-04-21T05:09:00.994Z,4.61
2023-04-21T05:10:01.042Z,4.94
2023-04-21T05:11:01.041Z,5.09
2023-04-21T05:12:01.052Z,5.05
2023-04-21T05:13:01.058Z,4.69
2023-04-21T05:14:01.138Z,5.12
2023-04-21T05:15:01.141Z,5.03
2023-04-21T05:16:01.163Z,5.13
2023-04-21T05:17:01.259Z,4.66
2023-04-21T05:18:01.266Z,4.71
2023-04-21T05:19:01.214Z,5.23
2023-04-21T05:20:01.285Z,4.56
2023-04-21T05:21:01.319Z,4.64
2023-04-21T05:22:01.340Z,5.33
2023-04-21T05:23:01.362Z,4.76
2023-04-21T05:24:01.404Z,4.80
2023-04-21T05:25:01.435Z,5.57
2023-04-21T05:26:04.123Z,4.99
2023-04-21T05:27:01.442Z,5.44
2023-04-21T05:28:01.428Z,5.33
2023-04-21T05:29:01.403Z,5.26
2023-04-21T05:30:01.448Z,5.48
2023-04-21T05:31:01.421Z,5.35
2023-04-21T05:32:01.517Z,5.36
2023-04-21T05:33:01.416Z,5.50
2023-04-21T05:34:01.387Z,5.25
2023-04-21T05:35:01.394Z,5.38
2023-04-21T05:36:01.402Z,5.09
2023-04-21T05:37:01.368Z,5.95
2023-04-21T05:38:01.382Z,6.10
2023-04-21T05:39:01.330Z,6.20
2023-04-21T05:40:01.392Z,5.60
2023-04-21T05:41:01.370Z,5.55
2023-04-21T05:42:01.376Z,5.72
2023-04-21T05:43:01.329Z,4.75
2023-04-21T05:44:01.348Z,4.21
2023-04-21T05:45:01.349Z,4.31
2023-04-21T05:46:01.429Z,4.14
2023-04-21T05:47:01.316Z,4.51
2023-04-21T05:48:01.374Z,5.85
2023-04-21T05:49:01.295Z,7.84
2023-04-21T05:50:01.251Z,8.55
2023-04-21T05:51:01.292Z,9.92
2023-04-21T05:52:01.331Z,9.79
2023-04-21T05:53:01.294Z,9.44
2023-04-21T05:54:01.251Z,8.59
2023-04-21T05:55:01.238Z,7.95
2023-04-21T05:56:01.222Z,8.54
2023-04-21T05:57:01.235Z,7.73
2023-04-21T05:58:01.240Z,12.51
2023-04-21T05:59:01.220Z,10.11
2023-04-21T06:00:01.200Z,10.90
2023-04-21T06:01:01.210Z,11.76
2023-04-21T06:02:01.241Z,10.45
2023-04-21T06:03:01.358Z,10.67
2023-04-21T06:04:01.511Z,10.81
2023-04-21T06:05:01.671Z,10.07
2023-04-21T06:06:01.213Z,10.19
2023-04-21T06:07:01.147Z,10.15
2023-04-21T06:08:01.206Z,9.51
2023-04-21T06:09:01.153Z,9.00
2023-04-21T06:10:01.155Z,8.91
2023-04-21T06:11:01.151Z,9.12
2023-04-21T06:12:01.233Z,9.71
2023-04-21T06:13:01.257Z,9.71
2023-04-21T06:14:01.267Z,9.73
2023-04-21T06:15:01.315Z,9.89
2023-04-21T06:16:01.445Z,9.80
2023-04-21T06:17:01.356Z,9.97
2023-04-21T06:18:01.474Z,9.67
2023-04-21T06:19:01.380Z,9.99
2023-04-21T06:20:02.236Z,10.27
2023-04-21T06:21:01.392Z,9.68
2023-04-21T06:22:01.421Z,10.20
2023-04-21T06:23:01.441Z,9.93
2023-04-21T06:24:01.449Z,9.35
2023-04-21T06:25:01.447Z,8.91
2023-04-21T06:26:01.488Z,8.92
2023-04-21T06:27:01.546Z,9.15
2023-04-21T06:28:01.548Z,10.40
2023-04-21T06:29:01.552Z,10.05
2023-04-21T06:30:01.584Z,9.98
2023-04-21T06:31:01.629Z,9.01
2023-04-21T06:32:01.756Z,9.78
2023-04-21T06:33:01.712Z,9.87
2023-04-21T06:34:01.682Z,9.48
2023-04-21T06:35:01.758Z,8.82
2023-04-21T06:36:01.814Z,9.41
2023-04-21T06:37:01.810Z,9.09
2023-04-21T06:38:01.822Z,8.87
2023-04-21T06:39:01.899Z,9.47
2023-04-21T06:40:01.882Z,9.08
2023-04-21T06:41:01.925Z,9.55
2023-04-21T06:42:01.946Z,9.48
2023-04-21T06:43:02.000Z,9.00
2023-04-21T06:44:02.028Z,9.05
2023-04-21T06:45:02.080Z,9.17
2023-04-21T06:46:02.126Z,9.62
2023-04-21T06:47:02.186Z,9.96
2023-04-21T06:48:02.226Z,10.43
2023-04-21T06:49:02.223Z,10.45
2023-04-21T06:50:02.273Z,9.88
2023-04-21T06:51:02.314Z,10.09
2023-04-21T06:52:02.354Z,10.24
2023-04-21T06:53:02.438Z,9.47
2023-04-21T06:54:02.443Z,9.48
2023-04-21T06:55:02.468Z,8.97
2023-04-21T06:56:02.537Z,10.42
2023-04-21T06:57:02.580Z,10.99
2023-04-21T06:58:02.585Z,10.03
2023-04-21T06:59:02.639Z,9.51
2023-04-21T07:00:02.675Z,9.50
2023-04-21T07:01:02.661Z,11.78
2023-04-21T07:02:02.772Z,15.22
2023-04-21T07:03:02.765Z,13.91
2023-04-21T07:04:02.805Z,19.34
2023-04-21T07:05:02.813Z,22.62
2023-04-21T07:06:02.846Z,20.93
2023-04-21T07:07:03.494Z,21.10
2023-04-21T07:08:02.877Z,17.54
2023-04-21T07:09:02.927Z,15.88
2023-04-21T07:10:02.924Z,17.22
2023-04-21T07:11:02.935Z,15.39
2023-04-21T07:12:03.046Z,12.72
2023-04-21T07:13:03.061Z,12.44
2023-04-21T07:14:03.086Z,13.62
2023-04-21T07:15:03.108Z,12.69
2023-04-21T07:16:03.129Z,12.32
2023-04-21T07:17:03.258Z,12.65
2023-04-21T07:18:03.242Z,13.02
2023-04-21T07:19:03.248Z,12.85
2023-04-21T07:20:03.315Z,12.43
2023-04-21T07:21:03.306Z,12.66
2023-04-21T07:22:03.330Z,12.79
2023-04-21T07:23:03.326Z,13.07
2023-04-21T07:24:03.340Z,12.51
2023-04-21T07:25:03.384Z,12.08
2023-04-21T07:26:03.350Z,11.64
2023-04-21T07:27:03.428Z,10.29
2023-04-21T07:28:03.506Z,9.99
2023-04-21T07:29:03.534Z,9.38
2023-04-21T07:30:03.534Z,9.02
2023-04-21T07:31:03.878Z,8.51
2023-04-21T07:32:03.588Z,8.51
2023-04-21T07:33:03.668Z,8.18
2023-04-21T07:34:03.685Z,8.61
2023-04-21T07:35:03.673Z,8.30
2023-04-21T07:36:03.726Z,8.24
2023-04-21T07:37:03.773Z,7.46
2023-04-21T07:38:03.782Z,8.08
2023-04-21T07:39:03.783Z,7.66
2023-04-21T07:40:03.833Z,7.51
2023-04-21T07:41:03.902Z,7.72
2023-04-21T07:42:03.925Z,7.02
2023-04-21T07:43:04.252Z,7.59
2023-04-21T07:44:04.313Z,6.31
2023-04-21T07:45:04.216Z,7.24
2023-04-21T07:46:04.096Z,6.90
2023-04-21T07:47:04.096Z,6.56
2023-04-21T07:48:04.178Z,6.27
2023-04-21T07:49:04.306Z,6.47
2023-04-21T07:50:04.171Z,6.65
2023-04-21T07:51:04.143Z,6.46
2023-04-21T07:52:04.181Z,5.91
2023-04-21T07:53:04.200Z,6.22
2023-04-21T07:54:04.226Z,6.37
2023-04-21T07:55:04.258Z,6.95
2023-04-21T07:56:04.256Z,6.16
2023-04-21T07:57:04.290Z,5.07
2023-04-21T07:58:04.278Z,6.51
2023-04-21T07:59:04.342Z,6.14
2023-04-21T08:00:04.339Z,6.31
2023-04-21T08:01:04.348Z,4.95
2023-04-21T08:02:04.383Z,5.52
2023-04-21T08:03:04.436Z,5.27
2023-04-21T08:04:04.482Z,5.62
2023-04-21T08:05:04.532Z,5.29
2023-04-21T08:06:04.890Z,5.37
2023-04-21T08:07:04.558Z,5.94
2023-04-21T08:08:04.962Z,5.28
2023-04-21T08:09:04.457Z,4.98
2023-04-21T08:10:04.508Z,4.92
2023-04-21T08:11:04.483Z,5.09
2023-04-21T08:12:04.539Z,5.37
2023-04-21T08:13:04.523Z,5.25
2023-04-21T08:14:04.563Z,5.78
2023-04-21T08:15:04.558Z,4.92
2023-04-21T08:16:04.614Z,4.73
2023-04-21T08:17:04.628Z,5.06
2023-04-21T08:18:04.759Z,5.07
2023-04-21T08:19:04.710Z,4.91
2023-04-21T08:20:04.754Z,5.18
2023-04-21T08:21:04.859Z,4.74
2023-04-21T08:22:04.824Z,4.78
2023-04-21T08:23:04.944Z,5.15
2023-04-21T08:24:04.942Z,5.37
2023-04-21T08:25:04.991Z,5.02
2023-04-21T08:26:05.228Z,5.29
2023-04-21T08:27:05.073Z,4.80
2023-04-21T08:28:05.129Z,5.02
2023-04-21T08:29:05.159Z,5.22
2023-04-21T08:30:05.200Z,5.53
2023-04-21T08:31:05.292Z,4.57
2023-04-21T08:32:05.456Z,5.77
2023-04-21T08:33:05.374Z,5.09
2023-04-21T08:34:05.440Z,4.77
2023-04-21T08:35:05.501Z,4.78
2023-04-21T08:36:12.223Z,4.66
2023-04-21T08:37:06.515Z,4.37
2023-04-21T08:38:05.489Z,4.49
2023-04-21T08:39:05.539Z,4.48
2023-04-21T08:40:05.470Z,4.84
2023-04-21T08:41:05.487Z,4.77
2023-04-21T08:42:05.466Z,4.35
2023-04-21T08:43:05.464Z,4.94
2023-04-21T08:44:05.470Z,5.06
2023-04-21T08:45:05.424Z,5.83
2023-04-21T08:46:05.494Z,6.04
2023-04-21T08:47:05.470Z,6.05
2023-04-21T08:48:05.539Z,5.81
2023-04-21T08:49:12.605Z,8.17
2023-04-21T08:50:05.527Z,8.77
2023-04-21T08:51:05.534Z,10.61
2023-04-21T08:52:05.545Z,9.23
2023-04-21T08:53:05.527Z,9.68
2023-04-21T08:54:05.541Z,9.86
2023-04-21T08:55:05.501Z,11.16
2023-04-21T08:56:11.257Z,10.11
2023-04-21T08:57:15.458Z,10.61
2023-04-21T08:58:06.507Z,10.91
2023-04-21T08:59:05.521Z,10.18
2023-04-21T09:00:07.945Z,10.42
2023-04-21T09:01:05.501Z,9.48
2023-04-21T09:02:05.536Z,8.65
2023-04-21T09:03:10.675Z,8.70
2023-04-21T09:04:06.602Z,9.49
2023-04-21T09:05:05.648Z,9.99
2023-04-21T09:06:05.843Z,9.40
2023-04-21T09:07:05.437Z,9.44
2023-04-21T09:08:05.416Z,8.67
2023-04-21T09:09:05.382Z,9.22
2023-04-21T09:10:05.424Z,9.91
2023-04-21T09:11:05.399Z,8.67
2023-04-21T09:12:05.372Z,9.40
2023-04-21T09:13:05.383Z,9.09
2023-04-21T09:14:05.356Z,8.83
2023-04-21T09:15:05.375Z,8.35
2023-04-21T09:16:08.311Z,8.04
2023-04-21T09:17:05.493Z,9.44
2023-04-21T09:18:05.403Z,8.45
2023-04-21T09:19:05.363Z,7.66
2023-04-21T09:20:05.345Z,8.11
2023-04-21T09:21:06.282Z,7.37
2023-04-21T09:22:05.328Z,7.73
2023-04-21T09:23:05.320Z,7.24
2023-04-21T09:24:05.296Z,7.09
2023-04-21T09:25:05.330Z,7.80
2023-04-21T09:26:05.289Z,7.33
2023-04-21T09:27:05.285Z,7.59
2023-04-21T09:28:05.260Z,6.85
2023-04-21T09:29:05.271Z,7.00
2023-04-21T09:30:05.260Z,7.19
2023-04-21T09:31:05.255Z,7.12
2023-04-21T09:32:05.280Z,7.75
2023-04-21T09:33:13.313Z,6.64
2023-04-21T09:34:06.239Z,7.67
2023-04-21T09:35:05.238Z,6.22
2023-04-21T09:36:05.230Z,6.93
2023-04-21T09:37:05.232Z,5.93
2023-04-21T09:38:05.228Z,6.13
2023-04-21T09:40:05.705Z,6.23
2023-04-21T09:41:05.174Z,6.71
2023-04-21T09:42:05.804Z,7.28
2023-04-21T09:43:05.188Z,7.72
2023-04-21T09:44:05.229Z,7.06
2023-04-21T09:46:05.240Z,7.33
2023-04-21T09:47:05.118Z,5.91
2023-04-21T09:48:05.193Z,6.12
2023-04-21T09:49:05.122Z,5.88
2023-04-21T09:50:05.143Z,6.02
2023-04-21T09:51:24.278Z,5.72
2023-04-21T09:52:18.708Z,5.95
2023-04-21T09:53:06.119Z,6.36
2023-04-21T09:54:05.707Z,6.61
2023-04-21T09:55:05.358Z,6.04
2023-04-21T09:56:05.374Z,5.75
2023-04-21T09:57:05.383Z,5.68
2023-04-21T09:58:05.442Z,4.81
2023-04-21T09:59:05.473Z,5.13
2023-04-21T10:00:05.474Z,5.13
2023-04-21T10:01:05.550Z,5.32
2023-04-21T10:02:05.745Z,4.76
2023-04-21T10:03:05.906Z,5.42
2023-04-21T10:04:05.777Z,5.25
2023-04-21T10:05:05.805Z,4.51
2023-04-21T10:06:05.800Z,5.10
2023-04-21T10:07:05.857Z,4.71
2023-04-21T10:08:05.848Z,5.26
2023-04-21T10:09:05.875Z,5.30
2023-04-21T10:10:05.905Z,5.12
2023-04-21T10:11:05.970Z,5.29
2023-04-21T10:12:07.809Z,5.06
2023-04-21T10:13:06.025Z,5.09
2023-04-21T10:14:05.978Z,4.34
2023-04-21T10:15:05.985Z,4.84
2023-04-21T10:16:06.034Z,4.80
2023-04-21T10:17:05.976Z,4.98
2023-04-21T10:18:06.105Z,4.48
2023-04-21T10:19:05.964Z,4.71
2023-04-21T10:20:05.928Z,5.21
2023-04-21T10:21:05.928Z,4.69
2023-04-21T10:22:05.935Z,4.44
2023-04-21T10:23:05.951Z,4.11
2023-04-21T10:24:05.916Z,4.31
2023-04-21T10:25:05.921Z,4.54
2023-04-21T10:26:05.891Z,4.64
2023-04-21T10:27:05.903Z,4.60
2023-04-21T10:28:05.923Z,4.09
2023-04-21T10:29:05.896Z,4.90
2023-04-21T10:30:05.851Z,4.56
2023-04-21T10:31:05.908Z,4.40
2023-04-21T10:32:08.512Z,4.57
2023-04-21T10:33:06.135Z,4.18
2023-04-21T10:34:05.868Z,3.70
2023-04-21T10:35:05.830Z,4.12
2023-04-21T10:36:05.841Z,4.92
2023-04-21T10:37:05.846Z,4.37
2023-04-21T10:38:07.028Z,4.60
2023-04-21T10:39:05.804Z,4.02
2023-04-21T10:40:05.806Z,4.46
2023-04-21T10:41:05.781Z,4.04
2023-04-21T10:42:05.802Z,4.53
2023-04-21T10:43:05.788Z,4.54
2023-04-21T10:44:05.822Z,4.15
2023-04-21T10:45:05.842Z,4.05
2023-04-21T10:46:05.841Z,3.98
2023-04-21T10:47:05.880Z,4.63
2023-04-21T10:48:05.892Z,4.80
2023-04-21T10:49:05.906Z,6.64
2023-04-21T10:50:05.920Z,8.36
2023-04-21T10:51:05.977Z,5.46
2023-04-21T10:52:06.015Z,4.31
2023-04-21T10:53:05.947Z,3.23
2023-04-21T10:54:05.977Z,4.31
2023-04-21T10:55:06.028Z,3.72
2023-04-21T10:56:05.992Z,3.84
2023-04-21T10:57:06.001Z,3.75
2023-04-21T10:58:06.057Z,4.18
2023-04-21T10:59:06.102Z,3.96
2023-04-21T11:00:06.113Z,2.85
2023-04-21T11:01:06.166Z,2.70
2023-04-21T11:02:06.198Z,3.64
2023-04-21T11:03:06.321Z,3.71
2023-04-21T11:04:06.392Z,4.40
2023-04-21T11:05:06.252Z,4.05
2023-04-21T11:06:06.239Z,4.63
2023-04-21T11:07:06.274Z,4.90
2023-04-21T11:08:06.297Z,4.03
2023-04-21T11:09:06.267Z,3.60
2023-04-21T11:10:06.307Z,3.80
2023-04-21T11:11:06.317Z,3.48
2023-04-21T11:12:06.338Z,3.95
2023-04-21T11:13:06.319Z,3.86
2023-04-21T11:14:06.371Z,3.65
2023-04-21T11:15:06.379Z,3.78
2023-04-21T11:16:06.447Z,3.28
2023-04-21T11:17:06.581Z,3.05
2023-04-21T11:18:06.550Z,3.16
2023-04-21T11:19:06.637Z,3.11
2023-04-21T11:20:06.780Z,3.41
2023-04-21T11:21:06.682Z,4.25
2023-04-21T11:22:06.766Z,4.15
2023-04-21T11:23:06.805Z,4.57
2023-04-21T11:24:06.836Z,4.34
2023-04-21T11:25:06.925Z,4.19
2023-04-21T11:26:06.931Z,4.41
2023-04-21T11:27:07.004Z,4.08
2023-04-21T11:28:07.016Z,4.27
2023-04-21T11:29:07.037Z,4.20
2023-04-21T11:30:07.073Z,4.53
2023-04-21T11:31:07.203Z,4.36
2023-04-21T11:32:07.182Z,4.22
2023-04-21T11:33:07.280Z,4.29
2023-04-21T11:34:07.312Z,4.52
2023-04-21T11:35:07.328Z,4.45
2023-04-21T11:36:07.397Z,4.04
2023-04-21T11:37:07.428Z,4.47
2023-04-21T11:38:07.479Z,3.79
2023-04-21T11:39:07.516Z,4.32
2023-04-21T11:40:07.542Z,4.59
2023-04-21T11:41:07.640Z,3.81
2023-04-21T11:42:07.618Z,3.58
2023-04-21T11:43:07.680Z,4.25
2023-04-21T11:44:08.599Z,4.09
2023-04-21T11:45:07.731Z,5.42
2023-04-21T11:46:07.826Z,4.68
2023-04-21T11:47:07.831Z,5.48
2023-04-21T11:48:07.911Z,6.51
2023-04-21T11:49:07.895Z,5.74
2023-04-21T11:50:07.996Z,4.89
2023-04-21T11:51:07.949Z,7.15
2023-04-21T11:52:08.007Z,5.22
2023-04-21T11:53:08.052Z,5.77
2023-04-21T11:54:08.099Z,5.09
2023-04-21T11:55:08.123Z,6.85
2023-04-21T11:56:08.123Z,5.54
2023-04-21T11:57:08.127Z,6.56
2023-04-21T11:58:08.202Z,5.75
2023-04-21T11:59:08.196Z,4.06
2023-04-21T12:00:08.198Z,5.04
2023-04-21T12:01:08.187Z,3.70
2023-04-21T12:02:08.198Z,6.14
2023-04-21T12:03:08.591Z,4.03
2023-04-21T12:04:08.585Z,3.78
2023-04-21T12:05:08.463Z,3.48
2023-04-21T12:06:08.333Z,2.87
2023-04-21T12:07:08.300Z,3.02
2023-04-21T12:08:08.343Z,3.14
2023-04-21T12:09:08.349Z,2.76
2023-04-21T12:10:08.389Z,3.18
2023-04-21T12:11:08.501Z,3.64
2023-04-21T12:12:08.423Z,2.19
2023-04-21T12:13:08.457Z,2.63
2023-04-21T12:14:08.482Z,1.92
2023-04-21T12:15:08.501Z,1.78
2023-04-21T12:16:08.558Z,2.85
2023-04-21T12:17:08.523Z,2.25
2023-04-21T12:18:08.897Z,1.81
2023-04-21T12:19:08.586Z,2.36
2023-04-21T12:20:08.604Z,1.93
2023-04-21T12:21:08.644Z,1.58
2023-04-21T12:22:08.650Z,1.89
2023-04-21T12:23:08.679Z,1.65
2023-04-21T12:24:08.898Z,2.18
2023-04-21T12:25:08.738Z,1.68
2023-04-21T12:26:08.754Z,1.48
2023-04-21T12:27:08.772Z,1.92
2023-04-21T12:28:08.858Z,1.69
2023-04-21T12:29:08.799Z,1.30
2023-04-21T12:30:08.852Z,1.42
2023-04-21T12:31:08.973Z,1.11
2023-04-21T12:32:09.057Z,1.27
2023-04-21T12:33:09.041Z,1.23
2023-04-21T12:34:08.988Z,1.06
2023-04-21T12:35:08.952Z,1.16
2023-04-21T12:36:09.025Z,1.08
2023-04-21T12:37:09.020Z,0.86
2023-04-21T12:38:09.077Z,1.04
2023-04-21T12:39:09.088Z,1.02
2023-04-21T12:40:09.389Z,0.99
2023-04-21T12:41:09.160Z,1.27
2023-04-21T12:42:09.153Z,0.75
2023-04-21T12:43:09.215Z,0.91
2023-04-21T12:44:09.237Z,0.78
2023-04-21T12:45:09.278Z,1.02
2023-04-21T12:46:09.370Z,0.91
2023-04-21T12:47:09.329Z,1.05
2023-04-21T12:48:09.448Z,0.72
2023-04-21T12:49:09.405Z,1.14
2023-04-21T12:50:09.437Z,0.95
2023-04-21T12:51:09.475Z,0.70
2023-04-21T12:52:09.497Z,0.81
2023-04-21T12:53:09.536Z,0.81
2023-04-21T12:54:09.548Z,0.79
2023-04-21T12:55:09.616Z,0.75
2023-04-21T12:56:09.630Z,0.92
2023-04-21T12:57:09.675Z,0.63
2023-04-21T12:58:09.676Z,0.79
2023-04-21T12:59:09.763Z,0.81
2023-04-21T13:00:09.758Z,0.54
2023-04-21T13:01:16.857Z,0.88
2023-04-21T13:02:09.797Z,0.78
2023-04-21T13:03:09.916Z,0.64
2023-04-21T13:04:09.985Z,0.62
2023-04-21T13:05:09.749Z,0.81
2023-04-21T13:06:09.764Z,0.81
2023-04-21T13:07:09.781Z,0.63
2023-04-21T13:08:09.771Z,0.87
2023-04-21T13:09:09.748Z,0.80
2023-04-21T13:10:09.728Z,0.66
2023-04-21T13:11:09.725Z,0.67
2023-04-21T13:12:09.704Z,0.55
2023-04-21T13:13:09.679Z,0.66
2023-04-21T13:14:09.668Z,0.71
2023-04-21T13:15:09.675Z,0.87
2023-04-21T13:16:09.687Z,0.58
2023-04-21T13:17:09.707Z,0.71
2023-04-21T13:18:09.684Z,0.60
2023-04-21T13:19:09.645Z,0.62